FW9258 Weather Reports


Display with metric or nautical units.
time (UTC)temp
F
wind
direction
speed
MPH
gust
MPH
rain 1hr
in
rain 24hr
in
rain mn
in
humidity
%
barometer
mb
20260902155020 64 247 10.0 18.0 0.00 0.38 0.38 94 1016.7
20260902154539 64 307 10.0 19.0 0.00 0.38 0.38 94 1016.8
20260902154019 64 276 11.0 19.0 0.00 0.38 0.38 94 1016.8
20260902153520 64 226 9.0 18.0 0.00 0.38 0.38 94 1016.8
20260902153040 64 263 9.0 19.0 0.00 0.38 0.38 94 1016.9
20260902152519 64 272 11.0 19.0 0.00 0.38 0.38 94 1016.9
20260902152018 64 266 10.0 18.0 0.00 0.38 0.38 94 1016.8
20260902151545 64 244 8.0 18.0 0.00 0.38 0.38 94 1017.0
20260902151021 64 269 8.0 18.0 0.00 0.38 0.38 94 1016.8
20260902150517 64 253 8.0 18.0 0.00 0.38 0.38 94 1016.8
20260902150040 64 265 8.0 17.0 0.00 0.38 0.38 94 1016.8
20260902145517 64 259 8.0 17.0 0.00 0.38 0.38 94 1016.7
20260902145017 64 228 7.0 15.0 0.00 0.38 0.38 94 1016.7
20260902144554 64 266 7.0 16.0 0.00 0.38 0.38 94 1016.6
20260902144018 64 324 7.0 18.0 0.00 0.38 0.38 94 1016.8
20260902143520 64 212 9.0 18.0 0.00 0.38 0.38 94 1016.8
20260902143039 64 286 8.0 16.0 0.00 0.38 0.38 94 1016.7
20260902142519 64 307 8.0 17.0 0.00 0.38 0.38 94 1016.8
20260902142019 64 243 11.0 18.0 0.00 0.38 0.38 94 1016.7
20260902141541 64 297 10.0 18.0 0.00 0.38 0.38 94 1016.7
20260902141021 64 302 7.0 17.0 0.00 0.38 0.38 94 1016.8
20260902140520 64 283 10.0 17.0 0.00 0.38 0.38 94 1016.8
20260902140041 64 237 8.0 17.0 0.00 0.38 0.38 94 1016.7
20260902135516 64 212 7.0 15.0 0.00 0.38 0.38 94 1016.6
20260902135019 64 222 9.0 18.0 0.00 0.38 0.38 94 1016.6
20260902134544 64 269 10.0 19.0 0.00 0.38 0.38 94 1016.6
20260902134019 64 238 10.0 19.0 0.00 0.38 0.38 95 1016.5
20260902133523 64 256 9.0 17.0 0.00 0.38 0.38 95 1016.5
20260902133040 64 304 10.0 18.0 0.00 0.38 0.38 95 1016.5
20260902132518 64 248 9.0 18.0 0.00 0.38 0.38 95 1016.4
20260902132018 64 271 11.0 17.0 0.00 0.38 0.38 95 1016.6
20260902131542 64 257 9.0 17.0 0.00 0.38 0.38 95 1016.7
20260902131019 64 255 9.0 17.0 0.00 0.38 0.38 95 1016.5
20260902130519 64 321 7.0 16.0 0.00 0.38 0.38 95 1016.5
20260902130039 64 248 7.0 16.0 0.00 0.38 0.38 95 1016.5
20260902125519 64 205 8.0 16.0 0.00 0.38 0.38 95 1016.3
20260902125020 64 281 7.0 17.0 0.01 0.38 0.38 95 1016.4
20260902124542 64 274 7.0 17.0 0.01 0.38 0.38 95 1016.4
20260902124019 64 295 8.0 17.0 0.01 0.38 0.38 95 1016.5
20260902123519 63 264 8.0 17.0 0.02 0.38 0.38 95 1016.5
20260902123040 63 272 7.0 17.0 0.02 0.38 0.38 95 1016.6
20260902122518 63 265 9.0 18.0 0.02 0.38 0.38 95 1016.6
20260902122019 63 238 7.0 18.0 0.02 0.38 0.38 95 1016.5
20260902121538 63 246 10.0 18.0 0.01 0.37 0.37 95 1016.5
20260902121021 63 275 8.0 18.0 0.01 0.37 0.37 95 1016.5
20260902120517 63 239 9.0 21.0 0.01 0.37 0.37 95 1016.5
20260902120044 63 271 11.0 21.0 0.01 0.37 0.37 95 1016.5
20260902115519 64 271 9.0 19.0 0.01 0.37 0.37 95 1016.5
20260902115019 64 243 9.0 18.0 0.00 0.37 0.37 95 1016.5
20260902114540 64 248 9.0 18.0 0.00 0.37 0.37 95 1016.5
20260902114023 64 229 6.0 16.0 0.00 0.37 0.37 95 1016.5
20260902113519 64 193 5.0 16.0 0.00 0.36 0.36 95 1016.3
20260902113049 64 274 4.0 13.0 0.00 0.36 0.36 95 1016.4
20260902112518 64 130 4.0 15.0 0.00 0.36 0.36 95 1016.4
20260902112019 63 317 7.0 19.0 0.00 0.36 0.36 95 1016.3
20260902111545 63 220 7.0 19.0 0.00 0.36 0.36 95 1016.3
20260902111017 63 245 5.0 18.0 0.02 0.36 0.36 95 1016.4
20260902110520 63 257 7.0 18.0 0.02 0.36 0.36 95 1016.4
20260902110040 63 250 7.0 16.0 0.02 0.36 0.36 95 1016.5
20260902105518 63 317 6.0 17.0 0.02 0.37 0.36 95 1016.6
20260902105019 63 49 8.0 17.0 0.02 0.37 0.36 95 1016.5
20260902104542 63 261 6.0 18.0 0.03 0.37 0.36 95 1016.7
20260902104019 63 233 7.0 20.0 0.03 0.37 0.36 95 1016.6
20260902103522 63 255 9.0 20.0 0.05 0.37 0.36 95 1016.7
20260902103041 63 115 7.0 17.0 0.08 0.37 0.36 95 1016.7
20260902102519 62 261 8.0 18.0 0.12 0.37 0.36 95 1016.8
20260902102020 62 6 6.0 18.0 0.13 0.36 0.35 95 1016.8
20260902101538 62 335 7.0 16.0 0.13 0.36 0.35 95 1016.8
20260902101021 62 320 7.0 15.0 0.12 0.34 0.33 95 1016.8
20260902100519 62 219 7.0 15.0 0.14 0.34 0.33 95 1017.0
20260902100039 62 289 6.0 15.0 0.14 0.34 0.33 95 1017.0
20260902095518 62 354 6.0 14.0 0.15 0.35 0.33 95 1017.1
20260902095018 62 221 7.0 14.0 0.15 0.35 0.33 95 1017.1
20260902094543 62 228 5.0 14.0 0.14 0.34 0.33 95 1017.0
20260902094019 61 274 5.0 12.0 0.14 0.33 0.32 95 1017.1
20260902093518 61 96 5.0 10.0 0.12 0.32 0.30 95 1017.1
20260902093040 61 121 4.0 10.0 0.08 0.28 0.26 94 1017.1
20260902092522 61 248 4.0 11.0 0.05 0.25 0.23 94 1017.1
20260902092018 60 117 3.0 11.0 0.03 0.23 0.22 94 1017.2
20260902091546 60 288 4.0 11.0 0.03 0.23 0.22 94 1017.3
20260902091020 60 269 4.0 11.0 0.02 0.22 0.20 94 1017.2
20260902090519 60 219 5.0 11.0 0.01 0.21 0.19 94 1017.3
20260902090039 60 122 5.0 11.0 0.00 0.20 0.18 94 1017.4
20260902085518 60 313 4.0 10.0 0.00 0.19 0.18 94 1017.3
20260902085018 60 110 4.0 13.0 0.00 0.19 0.18 94 1017.4
20260902084538 60 324 6.0 13.0 0.00 0.19 0.18 94 1017.4
20260902084022 60 256 6.0 13.0 0.00 0.19 0.18 94 1017.5
20260902083520 60 340 5.0 14.0 0.00 0.19 0.18 94 1017.5
20260902083035 59 140 6.0 14.0 0.00 0.19 0.18 94 1017.5
20260902082522 59 21 5.0 12.0 0.00 0.19 0.18 94 1017.6
20260902082020 59 124 4.0 12.0 0.00 0.19 0.18 94 1017.7
20260902081545 59 319 5.0 11.0 0.00 0.19 0.18 94 1017.7
20260902081201 59 253 4.0 11.0 0.00 0.19 0.18 94 1017.6